Overview Statistics Trail Chart Weather Telemetry Raw packets
 

This is the latest recevied weather packets stored in our database for station/object ED1ZAI-13. If no packets are shown the sender has not sent any weather packets the latest 10 day(s).

<< 21 22 23 24 25 26 27 >>
Time Temp. Humidity Pressure Rain* Wind** Luminosity Snow
1788284248 26.11° C 40% 1017.5 hPa - - - -
1788283650 27.22° C 37% 1018 hPa - - - -
1788283050 26.67° C 37% 1017.8 hPa - - - -
1788282449 26.67° C 38% 1017.8 hPa - - - -
1788281849 27.22° C 37% 1017.9 hPa - - - -
1788281250 28.33° C 33% 1018.3 hPa - - - -
1788280649 31.11° C 24% 1018.4 hPa - - - -
1788280049 30.56° C 26% 1018.3 hPa - - - -
1788279449 32.22° C 21% 1018.3 hPa - - - -
1788278849 31.11° C 20% 1018.2 hPa - - - -
1788278248 32.22° C 18% 1018.1 hPa - - - -
1788277650 32.78° C 16% 1018 hPa - - - -
1788277050 33.33° C 16% 1018.1 hPa - - - -
1788276449 34.44° C 17% 1018.1 hPa - - - -
1788275849 31.67° C 18% 1018.2 hPa - - - -
1788275249 32.22° C 17% 1018.3 hPa - - - -
1788274649 31.67° C 17% 1018.2 hPa - - - -
1788274048 36.11° C 14% 1018.3 hPa - - - -
1788273450 33.89° C 16% 1018.3 hPa - - - -
1788272849 33.89° C 16% 1018.5 hPa - - - -
1788272249 36.11° C 17% 1018.6 hPa - - - -
1788271648 35° C 19% 1018.7 hPa - - - -
1788271048 35° C 20% 1018.8 hPa - - - -
1788270448 34.44° C 20% 1018.9 hPa - - - -
1788270115 34.44° C 20% 1018.9 hPa - - - -

* Rain since midnight (hover to see other rain measurements)
** Current wind speed in m/s (hover to see current wind gust speed)